sensor_id;sensor_type;location;lat;lon;timestamp;P1;durP1;ratioP1;P2;durP2;ratioP2
18302;SDS011;9277;37.980;23.748;2022-08-21T00:00:05;7.80;;;5.82;;
18302;SDS011;9277;37.980;23.748;2022-08-21T00:02:33;9.20;;;5.55;;
18302;SDS011;9277;37.980;23.748;2022-08-21T00:04:59;10.77;;;5.68;;
18302;SDS011;9277;37.980;23.748;2022-08-21T00:07:27;9.60;;;5.63;;
18302;SDS011;9277;37.980;23.748;2022-08-21T00:09:54;12.07;;;5.88;;
18302;SDS011;9277;37.980;23.748;2022-08-21T00:12:21;8.32;;;5.50;;
18302;SDS011;9277;37.980;23.748;2022-08-21T00:14:47;11.30;;;5.63;;
18302;SDS011;9277;37.980;23.748;2022-08-21T00:17:16;7.38;;;5.72;;
18302;SDS011;9277;37.980;23.748;2022-08-21T00:19:43;8.80;;;5.30;;
18302;SDS011;9277;37.980;23.748;2022-08-21T00:22:09;9.45;;;5.57;;
18302;SDS011;9277;37.980;23.748;2022-08-21T00:24:36;9.23;;;5.32;;
18302;SDS011;9277;37.980;23.748;2022-08-21T00:27:03;7.78;;;5.13;;
18302;SDS011;9277;37.980;23.748;2022-08-21T00:29:30;8.05;;;5.38;;
18302;SDS011;9277;37.980;23.748;2022-08-21T00:31:57;9.45;;;5.40;;
18302;SDS011;9277;37.980;23.748;2022-08-21T00:34:25;7.93;;;4.70;;
18302;SDS011;9277;37.980;23.748;2022-08-21T00:36:52;7.25;;;5.22;;
18302;SDS011;9277;37.980;23.748;2022-08-21T00:39:19;7.40;;;5.20;;
18302;SDS011;9277;37.980;23.748;2022-08-21T00:41:45;8.27;;;5.47;;
18302;SDS011;9277;37.980;23.748;2022-08-21T00:44:13;9.98;;;5.65;;
18302;SDS011;9277;37.980;23.748;2022-08-21T00:46:40;11.13;;;5.78;;
18302;SDS011;9277;37.980;23.748;2022-08-21T00:49:09;5.82;;;4.97;;
18302;SDS011;9277;37.980;23.748;2022-08-21T00:51:39;8.88;;;5.72;;
18302;SDS011;9277;37.980;23.748;2022-08-21T00:54:08;10.18;;;5.43;;
18302;SDS011;9277;37.980;23.748;2022-08-21T00:56:36;8.23;;;5.55;;
18302;SDS011;9277;37.980;23.748;2022-08-21T00:59:03;8.00;;;5.53;;
18302;SDS011;9277;37.980;23.748;2022-08-21T01:01:30;9.30;;;4.90;;
18302;SDS011;9277;37.980;23.748;2022-08-21T01:03:57;7.28;;;5.00;;
18302;SDS011;9277;37.980;23.748;2022-08-21T01:06:24;6.95;;;5.20;;
18302;SDS011;9277;37.980;23.748;2022-08-21T01:08:52;6.72;;;5.30;;
18302;SDS011;9277;37.980;23.748;2022-08-21T01:11:19;7.10;;;5.32;;
18302;SDS011;9277;37.980;23.748;2022-08-21T01:13:46;8.38;;;5.22;;
18302;SDS011;9277;37.980;23.748;2022-08-21T01:16:15;9.82;;;5.50;;
18302;SDS011;9277;37.980;23.748;2022-08-21T01:18:42;6.75;;;5.00;;
18302;SDS011;9277;37.980;23.748;2022-08-21T01:21:12;10.65;;;5.30;;
18302;SDS011;9277;37.980;23.748;2022-08-21T01:23:39;8.82;;;6.30;;
18302;SDS011;9277;37.980;23.748;2022-08-21T01:26:07;7.03;;;5.25;;
18302;SDS011;9277;37.980;23.748;2022-08-21T01:28:36;9.90;;;5.70;;
18302;SDS011;9277;37.980;23.748;2022-08-21T01:31:05;7.22;;;5.43;;
18302;SDS011;9277;37.980;23.748;2022-08-21T01:33:32;9.10;;;5.90;;
18302;SDS011;9277;37.980;23.748;2022-08-21T01:35:59;12.27;;;6.13;;
18302;SDS011;9277;37.980;23.748;2022-08-21T01:38:28;13.55;;;6.53;;
18302;SDS011;9277;37.980;23.748;2022-08-21T01:40:55;11.05;;;6.28;;
18302;SDS011;9277;37.980;23.748;2022-08-21T01:43:22;12.88;;;6.97;;
18302;SDS011;9277;37.980;23.748;2022-08-21T01:45:48;12.57;;;6.60;;
18302;SDS011;9277;37.980;23.748;2022-08-21T01:48:15;9.07;;;6.03;;
18302;SDS011;9277;37.980;23.748;2022-08-21T01:50:42;10.75;;;6.05;;
18302;SDS011;9277;37.980;23.748;2022-08-21T01:53:09;12.43;;;7.05;;
18302;SDS011;9277;37.980;23.748;2022-08-21T01:55:37;13.38;;;6.45;;
18302;SDS011;9277;37.980;23.748;2022-08-21T01:58:04;11.55;;;6.47;;
18302;SDS011;9277;37.980;23.748;2022-08-21T02:00:31;11.80;;;6.30;;
18302;SDS011;9277;37.980;23.748;2022-08-21T02:02:58;7.32;;;5.68;;
18302;SDS011;9277;37.980;23.748;2022-08-21T02:05:25;10.45;;;6.68;;
18302;SDS011;9277;37.980;23.748;2022-08-21T02:07:52;12.20;;;6.47;;
18302;SDS011;9277;37.980;23.748;2022-08-21T02:10:21;10.55;;;6.32;;
18302;SDS011;9277;37.980;23.748;2022-08-21T02:12:50;11.73;;;6.32;;
18302;SDS011;9277;37.980;23.748;2022-08-21T02:15:17;10.88;;;6.28;;
18302;SDS011;9277;37.980;23.748;2022-08-21T02:17:45;8.95;;;6.28;;
18302;SDS011;9277;37.980;23.748;2022-08-21T02:20:15;11.55;;;6.50;;
18302;SDS011;9277;37.980;23.748;2022-08-21T02:22:43;11.20;;;5.78;;
18302;SDS011;9277;37.980;23.748;2022-08-21T02:25:09;9.00;;;6.18;;
18302;SDS011;9277;37.980;23.748;2022-08-21T02:27:39;8.95;;;5.43;;
18302;SDS011;9277;37.980;23.748;2022-08-21T02:30:09;8.20;;;5.63;;
18302;SDS011;9277;37.980;23.748;2022-08-21T02:32:36;8.88;;;5.50;;
18302;SDS011;9277;37.980;23.748;2022-08-21T02:35:04;9.80;;;5.75;;
18302;SDS011;9277;37.980;23.748;2022-08-21T02:37:31;8.50;;;5.95;;
18302;SDS011;9277;37.980;23.748;2022-08-21T02:39:58;7.25;;;5.35;;
18302;SDS011;9277;37.980;23.748;2022-08-21T02:42:25;6.95;;;5.40;;
18302;SDS011;9277;37.980;23.748;2022-08-21T02:44:52;6.97;;;5.25;;
18302;SDS011;9277;37.980;23.748;2022-08-21T02:47:20;7.47;;;4.68;;
18302;SDS011;9277;37.980;23.748;2022-08-21T02:49:47;7.03;;;5.05;;
18302;SDS011;9277;37.980;23.748;2022-08-21T02:52:14;8.07;;;5.03;;
18302;SDS011;9277;37.980;23.748;2022-08-21T02:54:41;7.53;;;4.97;;
18302;SDS011;9277;37.980;23.748;2022-08-21T02:57:08;5.20;;;4.22;;
18302;SDS011;9277;37.980;23.748;2022-08-21T02:59:34;7.53;;;5.30;;
18302;SDS011;9277;37.980;23.748;2022-08-21T03:02:01;8.27;;;4.75;;
18302;SDS011;9277;37.980;23.748;2022-08-21T03:04:30;7.93;;;5.20;;
18302;SDS011;9277;37.980;23.748;2022-08-21T03:06:57;8.38;;;5.30;;
18302;SDS011;9277;37.980;23.748;2022-08-21T03:09:24;7.93;;;5.50;;
18302;SDS011;9277;37.980;23.748;2022-08-21T03:11:51;8.88;;;5.43;;
18302;SDS011;9277;37.980;23.748;2022-08-21T03:14:18;10.40;;;6.05;;
18302;SDS011;9277;37.980;23.748;2022-08-21T03:16:45;9.65;;;6.43;;
18302;SDS011;9277;37.980;23.748;2022-08-21T03:19:12;8.38;;;5.80;;
18302;SDS011;9277;37.980;23.748;2022-08-21T03:21:40;10.25;;;6.30;;
18302;SDS011;9277;37.980;23.748;2022-08-21T03:24:07;11.90;;;7.32;;
18302;SDS011;9277;37.980;23.748;2022-08-21T03:26:34;11.43;;;6.30;;
18302;SDS011;9277;37.980;23.748;2022-08-21T03:29:01;7.55;;;5.93;;
18302;SDS011;9277;37.980;23.748;2022-08-21T03:31:28;11.13;;;6.22;;
18302;SDS011;9277;37.980;23.748;2022-08-21T03:33:56;11.85;;;7.03;;
18302;SDS011;9277;37.980;23.748;2022-08-21T03:36:23;8.93;;;6.10;;
18302;SDS011;9277;37.980;23.748;2022-08-21T03:38:52;8.00;;;6.10;;
18302;SDS011;9277;37.980;23.748;2022-08-21T03:41:19;9.55;;;5.80;;
18302;SDS011;9277;37.980;23.748;2022-08-21T03:43:45;10.25;;;6.47;;
18302;SDS011;9277;37.980;23.748;2022-08-21T03:46:12;7.70;;;5.53;;
18302;SDS011;9277;37.980;23.748;2022-08-21T03:48:39;9.35;;;5.93;;
18302;SDS011;9277;37.980;23.748;2022-08-21T03:51:06;11.48;;;5.72;;
18302;SDS011;9277;37.980;23.748;2022-08-21T03:53:33;9.68;;;6.32;;
18302;SDS011;9277;37.980;23.748;2022-08-21T03:56:01;9.15;;;6.05;;
18302;SDS011;9277;37.980;23.748;2022-08-21T03:58:28;15.13;;;6.13;;
18302;SDS011;9277;37.980;23.748;2022-08-21T04:00:57;8.90;;;6.35;;
18302;SDS011;9277;37.980;23.748;2022-08-21T04:03:24;11.70;;;6.05;;
18302;SDS011;9277;37.980;23.748;2022-08-21T04:05:51;11.90;;;5.47;;
18302;SDS011;9277;37.980;23.748;2022-08-21T04:08:18;8.57;;;5.30;;
18302;SDS011;9277;37.980;23.748;2022-08-21T04:10:46;6.45;;;5.05;;
18302;SDS011;9277;37.980;23.748;2022-08-21T04:13:15;10.43;;;4.90;;
18302;SDS011;9277;37.980;23.748;2022-08-21T04:15:42;5.93;;;4.70;;
18302;SDS011;9277;37.980;23.748;2022-08-21T04:18:09;6.30;;;4.70;;
18302;SDS011;9277;37.980;23.748;2022-08-21T04:20:36;10.60;;;4.90;;
18302;SDS011;9277;37.980;23.748;2022-08-21T04:23:03;5.47;;;4.55;;
18302;SDS011;9277;37.980;23.748;2022-08-21T04:25:30;6.10;;;4.20;;
18302;SDS011;9277;37.980;23.748;2022-08-21T04:27:56;9.50;;;4.28;;
18302;SDS011;9277;37.980;23.748;2022-08-21T04:30:25;5.80;;;4.13;;
18302;SDS011;9277;37.980;23.748;2022-08-21T04:32:51;5.75;;;4.20;;
18302;SDS011;9277;37.980;23.748;2022-08-21T04:35:19;7.97;;;4.07;;
18302;SDS011;9277;37.980;23.748;2022-08-21T04:37:46;9.15;;;4.32;;
18302;SDS011;9277;37.980;23.748;2022-08-21T04:40:14;7.88;;;4.95;;
18302;SDS011;9277;37.980;23.748;2022-08-21T04:42:42;6.97;;;4.50;;
18302;SDS011;9277;37.980;23.748;2022-08-21T04:45:15;8.68;;;4.45;;
18302;SDS011;9277;37.980;23.748;2022-08-21T04:47:43;7.95;;;4.00;;
18302;SDS011;9277;37.980;23.748;2022-08-21T04:50:10;6.05;;;4.25;;
18302;SDS011;9277;37.980;23.748;2022-08-21T04:52:37;5.68;;;4.18;;
18302;SDS011;9277;37.980;23.748;2022-08-21T04:55:04;9.52;;;5.10;;
18302;SDS011;9277;37.980;23.748;2022-08-21T04:57:33;7.20;;;4.25;;
18302;SDS011;9277;37.980;23.748;2022-08-21T05:00:00;5.82;;;4.47;;
18302;SDS011;9277;37.980;23.748;2022-08-21T05:02:28;6.60;;;4.10;;
18302;SDS011;9277;37.980;23.748;2022-08-21T05:04:59;7.43;;;3.97;;
18302;SDS011;9277;37.980;23.748;2022-08-21T05:07:26;4.95;;;3.65;;
18302;SDS011;9277;37.980;23.748;2022-08-21T05:09:55;4.97;;;3.67;;
18302;SDS011;9277;37.980;23.748;2022-08-21T05:12:22;5.75;;;3.72;;
18302;SDS011;9277;37.980;23.748;2022-08-21T05:14:49;3.80;;;3.40;;
18302;SDS011;9277;37.980;23.748;2022-08-21T05:17:16;5.07;;;4.05;;
18302;SDS011;9277;37.980;23.748;2022-08-21T05:19:43;6.10;;;3.65;;
18302;SDS011;9277;37.980;23.748;2022-08-21T05:22:11;8.10;;;4.20;;
18302;SDS011;9277;37.980;23.748;2022-08-21T05:24:38;4.97;;;3.58;;
18302;SDS011;9277;37.980;23.748;2022-08-21T05:27:04;9.23;;;4.55;;
18302;SDS011;9277;37.980;23.748;2022-08-21T05:29:32;6.03;;;3.97;;
18302;SDS011;9277;37.980;23.748;2022-08-21T05:31:59;10.38;;;3.70;;
18302;SDS011;9277;37.980;23.748;2022-08-21T05:34:26;7.22;;;4.10;;
18302;SDS011;9277;37.980;23.748;2022-08-21T05:36:53;6.57;;;3.92;;
18302;SDS011;9277;37.980;23.748;2022-08-21T05:39:21;5.07;;;3.60;;
18302;SDS011;9277;37.980;23.748;2022-08-21T05:41:48;5.43;;;3.67;;
18302;SDS011;9277;37.980;23.748;2022-08-21T05:44:15;8.77;;;3.92;;
18302;SDS011;9277;37.980;23.748;2022-08-21T05:46:41;6.68;;;3.28;;
18302;SDS011;9277;37.980;23.748;2022-08-21T05:49:08;5.38;;;3.60;;
18302;SDS011;9277;37.980;23.748;2022-08-21T05:51:35;9.13;;;4.15;;
18302;SDS011;9277;37.980;23.748;2022-08-21T05:54:02;6.88;;;3.70;;
18302;SDS011;9277;37.980;23.748;2022-08-21T05:56:31;8.45;;;4.15;;
18302;SDS011;9277;37.980;23.748;2022-08-21T05:58:58;10.38;;;4.65;;
18302;SDS011;9277;37.980;23.748;2022-08-21T06:01:24;10.23;;;4.10;;
18302;SDS011;9277;37.980;23.748;2022-08-21T06:03:51;7.15;;;4.25;;
18302;SDS011;9277;37.980;23.748;2022-08-21T06:06:18;7.30;;;4.40;;
18302;SDS011;9277;37.980;23.748;2022-08-21T06:08:45;8.95;;;4.25;;
18302;SDS011;9277;37.980;23.748;2022-08-21T06:11:12;9.18;;;4.75;;
18302;SDS011;9277;37.980;23.748;2022-08-21T06:13:40;6.93;;;3.90;;
18302;SDS011;9277;37.980;23.748;2022-08-21T06:16:08;10.15;;;4.72;;
18302;SDS011;9277;37.980;23.748;2022-08-21T06:18:35;4.25;;;3.67;;
18302;SDS011;9277;37.980;23.748;2022-08-21T06:21:02;8.05;;;3.80;;
18302;SDS011;9277;37.980;23.748;2022-08-21T06:23:29;6.40;;;4.15;;
18302;SDS011;9277;37.980;23.748;2022-08-21T06:25:56;4.40;;;3.67;;
18302;SDS011;9277;37.980;23.748;2022-08-21T06:28:23;5.88;;;3.92;;
18302;SDS011;9277;37.980;23.748;2022-08-21T06:30:51;8.10;;;3.90;;
18302;SDS011;9277;37.980;23.748;2022-08-21T06:33:18;5.07;;;3.70;;
18302;SDS011;9277;37.980;23.748;2022-08-21T06:35:45;10.48;;;4.43;;
18302;SDS011;9277;37.980;23.748;2022-08-21T06:38:12;8.93;;;3.97;;
18302;SDS011;9277;37.980;23.748;2022-08-21T06:40:39;7.53;;;3.83;;
18302;SDS011;9277;37.980;23.748;2022-08-21T06:43:06;4.15;;;3.63;;
18302;SDS011;9277;37.980;23.748;2022-08-21T06:45:33;5.22;;;3.70;;
18302;SDS011;9277;37.980;23.748;2022-08-21T06:48:02;6.82;;;3.80;;
18302;SDS011;9277;37.980;23.748;2022-08-21T06:50:29;7.13;;;3.95;;
18302;SDS011;9277;37.980;23.748;2022-08-21T06:52:59;6.53;;;3.60;;
18302;SDS011;9277;37.980;23.748;2022-08-21T06:55:26;5.03;;;3.22;;
18302;SDS011;9277;37.980;23.748;2022-08-21T06:57:53;7.07;;;4.25;;
18302;SDS011;9277;37.980;23.748;2022-08-21T07:00:20;6.30;;;3.70;;
18302;SDS011;9277;37.980;23.748;2022-08-21T07:02:47;7.45;;;4.07;;
18302;SDS011;9277;37.980;23.748;2022-08-21T07:05:15;7.55;;;4.03;;
18302;SDS011;9277;37.980;23.748;2022-08-21T07:07:42;5.28;;;3.60;;
18302;SDS011;9277;37.980;23.748;2022-08-21T07:10:09;22.80;;;4.20;;
18302;SDS011;9277;37.980;23.748;2022-08-21T07:12:36;7.47;;;4.32;;
18302;SDS011;9277;37.980;23.748;2022-08-21T07:15:03;6.78;;;3.40;;
18302;SDS011;9277;37.980;23.748;2022-08-21T07:17:30;6.15;;;3.47;;
18302;SDS011;9277;37.980;23.748;2022-08-21T07:19:57;6.72;;;4.03;;
18302;SDS011;9277;37.980;23.748;2022-08-21T07:22:25;4.28;;;3.53;;
18302;SDS011;9277;37.980;23.748;2022-08-21T07:24:53;11.85;;;3.92;;
18302;SDS011;9277;37.980;23.748;2022-08-21T07:27:20;10.13;;;4.05;;
18302;SDS011;9277;37.980;23.748;2022-08-21T07:29:46;7.47;;;3.95;;
18302;SDS011;9277;37.980;23.748;2022-08-21T07:32:13;5.05;;;3.63;;
18302;SDS011;9277;37.980;23.748;2022-08-21T07:34:41;3.88;;;3.50;;
18302;SDS011;9277;37.980;23.748;2022-08-21T07:37:08;5.55;;;3.75;;
18302;SDS011;9277;37.980;23.748;2022-08-21T07:39:36;5.10;;;3.92;;
18302;SDS011;9277;37.980;23.748;2022-08-21T07:42:03;6.93;;;3.35;;
18302;SDS011;9277;37.980;23.748;2022-08-21T07:44:30;5.05;;;3.78;;
18302;SDS011;9277;37.980;23.748;2022-08-21T07:46:57;5.13;;;3.65;;
18302;SDS011;9277;37.980;23.748;2022-08-21T07:49:23;3.92;;;3.47;;
18302;SDS011;9277;37.980;23.748;2022-08-21T07:51:50;4.78;;;3.80;;
18302;SDS011;9277;37.980;23.748;2022-08-21T07:54:17;6.63;;;4.15;;
18302;SDS011;9277;37.980;23.748;2022-08-21T07:56:45;6.78;;;4.00;;
18302;SDS011;9277;37.980;23.748;2022-08-21T07:59:12;7.13;;;3.92;;
18302;SDS011;9277;37.980;23.748;2022-08-21T08:01:39;6.22;;;3.95;;
18302;SDS011;9277;37.980;23.748;2022-08-21T08:04:06;7.65;;;3.88;;
18302;SDS011;9277;37.980;23.748;2022-08-21T08:06:33;6.63;;;3.88;;
18302;SDS011;9277;37.980;23.748;2022-08-21T08:09:00;6.47;;;4.10;;
18302;SDS011;9277;37.980;23.748;2022-08-21T08:11:28;9.35;;;3.88;;
18302;SDS011;9277;37.980;23.748;2022-08-21T08:13:56;4.68;;;3.95;;
18302;SDS011;9277;37.980;23.748;2022-08-21T08:16:24;5.00;;;3.78;;
18302;SDS011;9277;37.980;23.748;2022-08-21T08:18:51;4.88;;;4.05;;
18302;SDS011;9277;37.980;23.748;2022-08-21T08:21:20;5.45;;;3.97;;
18302;SDS011;9277;37.980;23.748;2022-08-21T08:23:48;8.80;;;3.85;;
18302;SDS011;9277;37.980;23.748;2022-08-21T08:26:14;5.45;;;3.95;;
18302;SDS011;9277;37.980;23.748;2022-08-21T08:28:42;6.32;;;4.47;;
18302;SDS011;9277;37.980;23.748;2022-08-21T08:31:10;6.28;;;4.03;;
18302;SDS011;9277;37.980;23.748;2022-08-21T08:33:37;4.45;;;3.58;;
18302;SDS011;9277;37.980;23.748;2022-08-21T08:36:04;5.47;;;4.00;;
18302;SDS011;9277;37.980;23.748;2022-08-21T08:38:31;7.20;;;3.90;;
18302;SDS011;9277;37.980;23.748;2022-08-21T08:41:00;6.70;;;3.63;;
18302;SDS011;9277;37.980;23.748;2022-08-21T08:43:28;4.00;;;3.28;;
18302;SDS011;9277;37.980;23.748;2022-08-21T08:45:55;5.93;;;3.45;;
18302;SDS011;9277;37.980;23.748;2022-08-21T08:48:31;6.35;;;3.67;;
18302;SDS011;9277;37.980;23.748;2022-08-21T08:51:02;4.53;;;3.47;;
18302;SDS011;9277;37.980;23.748;2022-08-21T08:53:30;4.65;;;3.50;;
18302;SDS011;9277;37.980;23.748;2022-08-21T08:55:58;5.25;;;3.75;;
18302;SDS011;9277;37.980;23.748;2022-08-21T08:58:27;6.25;;;3.72;;
18302;SDS011;9277;37.980;23.748;2022-08-21T09:00:55;3.90;;;3.50;;
18302;SDS011;9277;37.980;23.748;2022-08-21T09:03:23;4.43;;;3.83;;
18302;SDS011;9277;37.980;23.748;2022-08-21T09:05:53;4.50;;;3.55;;
18302;SDS011;9277;37.980;23.748;2022-08-21T09:08:38;6.13;;;3.75;;
18302;SDS011;9277;37.980;23.748;2022-08-21T09:11:10;9.57;;;3.83;;
18302;SDS011;9277;37.980;23.748;2022-08-21T09:13:43;8.13;;;3.33;;
18302;SDS011;9277;37.980;23.748;2022-08-21T09:16:13;4.78;;;3.53;;
18302;SDS011;9277;37.980;23.748;2022-08-21T09:18:45;6.22;;;3.70;;
18302;SDS011;9277;37.980;23.748;2022-08-21T09:21:26;7.20;;;3.47;;
18302;SDS011;9277;37.980;23.748;2022-08-21T09:23:55;6.07;;;3.42;;
18302;SDS011;9277;37.980;23.748;2022-08-21T09:26:25;3.97;;;3.45;;
18302;SDS011;9277;37.980;23.748;2022-08-21T09:28:53;4.90;;;3.60;;
18302;SDS011;9277;37.980;23.748;2022-08-21T09:31:23;5.45;;;3.58;;
18302;SDS011;9277;37.980;23.748;2022-08-21T09:33:50;5.43;;;3.63;;
18302;SDS011;9277;37.980;23.748;2022-08-21T09:36:27;4.03;;;3.63;;
18302;SDS011;9277;37.980;23.748;2022-08-21T09:38:56;4.50;;;3.63;;
18302;SDS011;9277;37.980;23.748;2022-08-21T09:41:26;6.07;;;3.35;;
18302;SDS011;9277;37.980;23.748;2022-08-21T09:43:53;5.40;;;3.58;;
18302;SDS011;9277;37.980;23.748;2022-08-21T09:46:21;6.70;;;4.50;;
18302;SDS011;9277;37.980;23.748;2022-08-21T09:48:48;12.02;;;4.20;;
18302;SDS011;9277;37.980;23.748;2022-08-21T09:51:17;7.60;;;4.22;;
18302;SDS011;9277;37.980;23.748;2022-08-21T09:53:47;7.65;;;4.72;;
18302;SDS011;9277;37.980;23.748;2022-08-21T09:56:22;4.68;;;4.10;;
18302;SDS011;9277;37.980;23.748;2022-08-21T09:59:13;5.18;;;3.78;;
18302;SDS011;9277;37.980;23.748;2022-08-21T10:01:42;5.65;;;3.78;;
18302;SDS011;9277;37.980;23.748;2022-08-21T10:04:10;4.10;;;3.55;;
18302;SDS011;9277;37.980;23.748;2022-08-21T10:06:37;10.25;;;4.00;;
18302;SDS011;9277;37.980;23.748;2022-08-21T10:09:07;8.73;;;4.35;;
18302;SDS011;9277;37.980;23.748;2022-08-21T10:11:34;5.07;;;3.90;;
18302;SDS011;9277;37.980;23.748;2022-08-21T10:14:05;8.27;;;4.20;;
18302;SDS011;9277;37.980;23.748;2022-08-21T10:16:37;7.40;;;4.40;;
18302;SDS011;9277;37.980;23.748;2022-08-21T10:19:11;5.25;;;3.47;;
18302;SDS011;9277;37.980;23.748;2022-08-21T10:21:40;5.20;;;4.18;;
18302;SDS011;9277;37.980;23.748;2022-08-21T10:24:18;7.85;;;4.00;;
18302;SDS011;9277;37.980;23.748;2022-08-21T10:26:51;4.93;;;4.18;;
18302;SDS011;9277;37.980;23.748;2022-08-21T10:29:23;4.07;;;3.70;;
18302;SDS011;9277;37.980;23.748;2022-08-21T10:31:54;8.73;;;5.03;;
18302;SDS011;9277;37.980;23.748;2022-08-21T10:34:26;8.45;;;5.60;;
18302;SDS011;9277;37.980;23.748;2022-08-21T10:37:00;7.35;;;4.85;;
18302;SDS011;9277;37.980;23.748;2022-08-21T10:39:31;11.23;;;5.32;;
18302;SDS011;9277;37.980;23.748;2022-08-21T10:42:05;10.20;;;4.57;;
18302;SDS011;9277;37.980;23.748;2022-08-21T10:44:34;9.82;;;4.90;;
18302;SDS011;9277;37.980;23.748;2022-08-21T10:47:05;8.18;;;4.82;;
18302;SDS011;9277;37.980;23.748;2022-08-21T10:49:35;7.95;;;4.95;;
18302;SDS011;9277;37.980;23.748;2022-08-21T10:52:19;10.65;;;5.30;;
18302;SDS011;9277;37.980;23.748;2022-08-21T10:54:50;7.80;;;4.95;;
18302;SDS011;9277;37.980;23.748;2022-08-21T10:57:27;11.93;;;4.85;;
18302;SDS011;9277;37.980;23.748;2022-08-21T10:59:57;5.88;;;4.30;;
18302;SDS011;9277;37.980;23.748;2022-08-21T11:02:26;6.68;;;5.30;;
18302;SDS011;9277;37.980;23.748;2022-08-21T11:04:54;10.23;;;5.10;;
18302;SDS011;9277;37.980;23.748;2022-08-21T11:07:24;9.48;;;5.13;;
18302;SDS011;9277;37.980;23.748;2022-08-21T11:09:54;6.85;;;4.88;;
18302;SDS011;9277;37.980;23.748;2022-08-21T11:12:23;7.93;;;5.20;;
18302;SDS011;9277;37.980;23.748;2022-08-21T11:14:51;8.70;;;4.70;;
18302;SDS011;9277;37.980;23.748;2022-08-21T11:17:21;8.90;;;4.88;;
18302;SDS011;9277;37.980;23.748;2022-08-21T11:19:50;10.55;;;5.32;;
18302;SDS011;9277;37.980;23.748;2022-08-21T11:22:18;6.38;;;4.68;;
18302;SDS011;9277;37.980;23.748;2022-08-21T11:24:49;11.73;;;4.88;;
18302;SDS011;9277;37.980;23.748;2022-08-21T11:27:20;14.30;;;4.80;;
18302;SDS011;9277;37.980;23.748;2022-08-21T11:29:48;10.27;;;5.50;;
18302;SDS011;9277;37.980;23.748;2022-08-21T11:32:30;9.10;;;4.85;;
18302;SDS011;9277;37.980;23.748;2022-08-21T11:35:00;5.97;;;4.45;;
18302;SDS011;9277;37.980;23.748;2022-08-21T11:37:33;9.13;;;4.55;;
18302;SDS011;9277;37.980;23.748;2022-08-21T11:40:05;11.23;;;5.28;;
18302;SDS011;9277;37.980;23.748;2022-08-21T11:42:38;9.18;;;5.05;;
18302;SDS011;9277;37.980;23.748;2022-08-21T11:45:11;7.13;;;4.85;;
18302;SDS011;9277;37.980;23.748;2022-08-21T11:47:52;9.00;;;4.75;;
18302;SDS011;9277;37.980;23.748;2022-08-21T11:50:22;11.70;;;6.00;;
18302;SDS011;9277;37.980;23.748;2022-08-21T11:52:50;8.45;;;4.60;;
18302;SDS011;9277;37.980;23.748;2022-08-21T11:55:22;8.02;;;5.10;;
18302;SDS011;9277;37.980;23.748;2022-08-21T11:57:52;8.65;;;4.43;;
18302;SDS011;9277;37.980;23.748;2022-08-21T12:00:22;10.43;;;5.03;;
18302;SDS011;9277;37.980;23.748;2022-08-21T12:02:51;5.65;;;4.40;;
18302;SDS011;9277;37.980;23.748;2022-08-21T12:05:26;7.53;;;4.60;;
18302;SDS011;9277;37.980;23.748;2022-08-21T12:08:01;8.38;;;4.43;;
18302;SDS011;9277;37.980;23.748;2022-08-21T12:10:31;6.40;;;4.68;;
18302;SDS011;9277;37.980;23.748;2022-08-21T12:13:06;9.52;;;5.35;;
18302;SDS011;9277;37.980;23.748;2022-08-21T12:15:34;9.40;;;5.60;;
18302;SDS011;9277;37.980;23.748;2022-08-21T12:18:02;8.05;;;5.07;;
18302;SDS011;9277;37.980;23.748;2022-08-21T12:20:35;11.23;;;5.47;;
18302;SDS011;9277;37.980;23.748;2022-08-21T12:23:04;8.73;;;5.40;;
18302;SDS011;9277;37.980;23.748;2022-08-21T12:25:36;5.82;;;4.55;;
18302;SDS011;9277;37.980;23.748;2022-08-21T12:28:07;6.03;;;4.72;;
18302;SDS011;9277;37.980;23.748;2022-08-21T12:30:36;6.95;;;4.35;;
18302;SDS011;9277;37.980;23.748;2022-08-21T12:33:04;6.22;;;4.35;;
18302;SDS011;9277;37.980;23.748;2022-08-21T12:35:32;6.38;;;4.45;;
18302;SDS011;9277;37.980;23.748;2022-08-21T12:38:00;7.28;;;4.70;;
18302;SDS011;9277;37.980;23.748;2022-08-21T12:40:30;6.82;;;5.10;;
18302;SDS011;9277;37.980;23.748;2022-08-21T12:42:58;8.20;;;4.65;;
18302;SDS011;9277;37.980;23.748;2022-08-21T12:45:28;7.57;;;4.45;;
18302;SDS011;9277;37.980;23.748;2022-08-21T12:47:57;5.75;;;4.30;;
18302;SDS011;9277;37.980;23.748;2022-08-21T12:50:28;7.55;;;4.88;;
18302;SDS011;9277;37.980;23.748;2022-08-21T12:52:59;6.95;;;4.72;;
18302;SDS011;9277;37.980;23.748;2022-08-21T12:55:27;9.95;;;5.25;;
18302;SDS011;9277;37.980;23.748;2022-08-21T12:57:55;7.50;;;4.55;;
18302;SDS011;9277;37.980;23.748;2022-08-21T13:00:22;5.53;;;4.18;;
18302;SDS011;9277;37.980;23.748;2022-08-21T13:02:51;6.35;;;4.38;;
18302;SDS011;9277;37.980;23.748;2022-08-21T13:05:22;9.45;;;4.90;;
18302;SDS011;9277;37.980;23.748;2022-08-21T13:07:50;7.45;;;4.72;;
18302;SDS011;9277;37.980;23.748;2022-08-21T13:10:18;7.25;;;5.00;;
18302;SDS011;9277;37.980;23.748;2022-08-21T13:12:46;6.35;;;4.07;;
18302;SDS011;9277;37.980;23.748;2022-08-21T13:15:14;5.97;;;4.20;;
18302;SDS011;9277;37.980;23.748;2022-08-21T13:17:42;9.68;;;4.50;;
18302;SDS011;9277;37.980;23.748;2022-08-21T13:20:19;8.25;;;4.95;;
18302;SDS011;9277;37.980;23.748;2022-08-21T13:22:47;7.30;;;5.32;;
18302;SDS011;9277;37.980;23.748;2022-08-21T13:25:14;7.68;;;4.43;;
18302;SDS011;9277;37.980;23.748;2022-08-21T13:27:42;8.27;;;4.63;;
18302;SDS011;9277;37.980;23.748;2022-08-21T13:30:10;7.07;;;4.80;;
18302;SDS011;9277;37.980;23.748;2022-08-21T13:32:39;5.47;;;4.32;;
18302;SDS011;9277;37.980;23.748;2022-08-21T13:35:10;6.75;;;4.90;;
18302;SDS011;9277;37.980;23.748;2022-08-21T13:37:39;5.05;;;4.53;;
18302;SDS011;9277;37.980;23.748;2022-08-21T13:40:07;5.30;;;4.32;;
18302;SDS011;9277;37.980;23.748;2022-08-21T13:42:37;5.65;;;4.60;;
18302;SDS011;9277;37.980;23.748;2022-08-21T13:45:10;6.50;;;4.88;;
18302;SDS011;9277;37.980;23.748;2022-08-21T13:47:37;5.60;;;4.55;;
18302;SDS011;9277;37.980;23.748;2022-08-21T13:50:04;6.95;;;4.75;;
18302;SDS011;9277;37.980;23.748;2022-08-21T13:52:32;7.53;;;4.55;;
18302;SDS011;9277;37.980;23.748;2022-08-21T13:55:07;6.57;;;5.15;;
18302;SDS011;9277;37.980;23.748;2022-08-21T13:57:34;5.28;;;4.35;;
18302;SDS011;9277;37.980;23.748;2022-08-21T14:00:14;6.55;;;4.55;;
18302;SDS011;9277;37.980;23.748;2022-08-21T14:02:43;9.57;;;4.97;;
18302;SDS011;9277;37.980;23.748;2022-08-21T14:05:14;5.68;;;4.60;;
18302;SDS011;9277;37.980;23.748;2022-08-21T14:07:42;6.82;;;4.40;;
18302;SDS011;9277;37.980;23.748;2022-08-21T14:10:13;6.22;;;4.57;;
18302;SDS011;9277;37.980;23.748;2022-08-21T14:12:41;7.15;;;4.80;;
18302;SDS011;9277;37.980;23.748;2022-08-21T14:15:09;7.38;;;4.88;;
18302;SDS011;9277;37.980;23.748;2022-08-21T14:17:39;6.82;;;4.93;;
18302;SDS011;9277;37.980;23.748;2022-08-21T14:20:07;6.78;;;4.43;;
18302;SDS011;9277;37.980;23.748;2022-08-21T14:22:36;7.30;;;4.75;;
18302;SDS011;9277;37.980;23.748;2022-08-21T14:25:04;6.55;;;4.88;;
18302;SDS011;9277;37.980;23.748;2022-08-21T14:27:33;6.45;;;4.28;;
18302;SDS011;9277;37.980;23.748;2022-08-21T14:30:01;7.57;;;4.68;;
18302;SDS011;9277;37.980;23.748;2022-08-21T14:32:34;9.32;;;4.32;;
18302;SDS011;9277;37.980;23.748;2022-08-21T14:35:03;5.25;;;4.40;;
18302;SDS011;9277;37.980;23.748;2022-08-21T14:37:30;7.00;;;4.38;;
18302;SDS011;9277;37.980;23.748;2022-08-21T14:39:57;6.65;;;4.70;;
18302;SDS011;9277;37.980;23.748;2022-08-21T14:42:23;6.85;;;4.88;;
18302;SDS011;9277;37.980;23.748;2022-08-21T14:44:52;6.53;;;4.70;;
18302;SDS011;9277;37.980;23.748;2022-08-21T14:47:20;6.53;;;4.47;;
18302;SDS011;9277;37.980;23.748;2022-08-21T14:49:48;5.38;;;4.25;;
18302;SDS011;9277;37.980;23.748;2022-08-21T14:52:15;5.55;;;4.35;;